Alijar, Spain

3:14 PM CET on March 23, 2017 (GMT +0100)
Rytterstien | | Change Station

Elev 0 ft 36.77 °N, 6.35 °W | Updated 7 minutes ago

Partly Cloudy
Partly Cloudy
55.9 °F
Feels Like 55.9 °F
N
6.2
Wind Variable Wind from West
Gusts 11.8 mph

Today
High -- | Low -- °F
--% Chance of Precip.
Yesterday
High -- | Low -- °F
Precip. -- in
Pressure 29.98 in
Visibility 6.2 miles
Clouds Few 3500 ft
Dew Point 42 °F
Humidity 58%
Rainfall 0.00 in
Snow Depth Not available.
7:24 AM 7:39 PM
Waning Crescent, 23% visible
METAR LERT 231400Z 27012KT 250V320 9999 FEW035 13/05 Q1015 NOSIG
Pressure 29.98 in
Visibility 6.2 miles
Clouds Few 3500 ft
Dew Point 42 °F
Humidity 58%
Rainfall 0.00 in
Snow Depth Not available.
7:24 AM 7:39 PM
Waning Crescent, 23% visible
METAR LERT 231400Z 27012KT 250V320 9999 FEW035 13/05 Q1015 NOSIG

Get Severe Weather Alerts

Thanks for signing up!

Be on the lookout for a verification email in your inbox.

You'll start receiving the daily forecast at 8 AM.

×

10-Day Weather Forecast

×

Almanac

Astronomy

Mar. 23, 2017 Rise Set
Actual Time
Civil Twilight
Nautical Twilight
Astronomical Twilight
Moon
Length of Visible Light
Length of Day
Tomorrow will be .
, % of the Moon is Illuminated

Today's Extremes

Country Highs Country Lows

Community

WunderPhotos

Upload Photos

1,962,540 photos uploaded!

WunderBlog® & News

Nearby

Air Quality

  Air Quality AQ Index Pollutant
Not available.

Snow Depth

Station Depth Elevation

Earthquake Activity

City Distance Mag. Time & Date
Minimum magnitude displayed is 2.5.

Earthquake Activity

City Distance Mag. Time & Date
Minimum magnitude displayed is 2.5.

Coastal Water Temperatures

Place Temperature

Stations

Nearby Weather Stations

Station Location Temp. Windchill Dew Point Humidity Wind Precip. Elev Updated Type